createdAt,value
2019-04-23T00:03:05.554Z,7.90
2019-04-23T00:06:00.114Z,7.90
2019-04-23T00:14:20.699Z,8.00
2019-04-23T00:17:06.823Z,8.00
2019-04-23T00:19:55.755Z,7.90
2019-04-23T00:23:06.084Z,7.90
2019-04-23T00:26:16.184Z,8.00
2019-04-23T00:29:06.285Z,8.00
2019-04-23T00:31:53.201Z,7.90
2019-04-23T00:34:42.558Z,7.90
2019-04-23T00:37:35.407Z,7.90
2019-04-23T00:40:11.343Z,7.90
2019-04-23T00:42:53.327Z,8.00
2019-04-23T00:45:44.148Z,7.90
2019-04-23T00:51:18.167Z,7.90
2019-04-23T00:54:08.028Z,7.90
2019-04-23T00:57:00.707Z,7.90
2019-04-23T00:59:44.755Z,7.90
2019-04-23T01:02:33.508Z,7.90
2019-04-23T01:05:19.755Z,7.90
2019-04-23T01:08:07.095Z,7.90
2019-04-23T01:10:56.295Z,7.90
2019-04-23T01:13:47.431Z,7.80
2019-04-23T01:16:28.324Z,7.80
2019-04-23T01:19:51.611Z,7.80
2019-04-23T01:22:04.095Z,7.80
2019-04-23T01:25:04.685Z,7.80
2019-04-23T01:28:17.451Z,7.70
2019-04-23T01:31:09.365Z,7.80
2019-04-23T01:33:53.592Z,7.70
2019-04-23T01:36:35.657Z,7.70
2019-04-23T01:39:24.444Z,7.70
2019-04-23T01:42:22.802Z,7.70
2019-04-23T01:45:06.971Z,7.60
2019-04-23T01:47:49.612Z,7.60
2019-04-23T01:53:31.825Z,7.60
2019-04-23T01:56:11.539Z,7.60
2019-04-23T01:59:02.509Z,7.60
2019-04-23T02:01:58.471Z,7.50
2019-04-23T02:04:36.248Z,7.50
2019-04-23T02:07:21.789Z,7.60
2019-04-23T02:10:14.616Z,7.60
2019-04-23T02:13:01.827Z,7.60
2019-04-23T02:15:43.950Z,7.60
2019-04-23T02:18:33.904Z,7.60
2019-04-23T02:21:16.939Z,7.60
2019-04-23T02:24:09.045Z,7.60
2019-04-23T02:26:48.699Z,7.60
2019-04-23T02:29:53.998Z,7.60
2019-04-23T02:32:42.221Z,7.60
2019-04-23T02:35:34.460Z,7.60
2019-04-23T02:38:40.604Z,7.60
2019-04-23T02:41:05.267Z,7.60
2019-04-23T02:43:33.553Z,7.60
2019-04-23T02:46:55.926Z,7.50
2019-04-23T02:52:09.509Z,7.50
2019-04-23T03:00:57.345Z,7.50
2019-04-23T03:03:33.546Z,7.50
2019-04-23T03:06:14.952Z,7.50
2019-04-23T03:08:46.360Z,7.50
2019-04-23T03:11:41.668Z,7.50
2019-04-23T03:14:23.210Z,7.40
2019-04-23T03:17:10.506Z,7.40
2019-04-23T03:20:15.413Z,7.40
2019-04-23T03:23:16.921Z,7.40
2019-04-23T03:25:57.021Z,7.30
2019-04-23T03:42:42.812Z,7.30
2019-04-23T03:45:44.503Z,7.30
2019-04-23T03:51:11.276Z,7.20
2019-04-23T04:11:25.515Z,7.30
2019-04-23T04:20:02.802Z,7.30
2019-04-23T04:25:37.089Z,7.30
2019-04-23T04:28:28.747Z,7.30
2019-04-23T04:30:54.356Z,7.40
2019-04-23T04:34:10.913Z,7.40
2019-04-23T04:36:45.822Z,7.40
2019-04-23T04:42:15.239Z,7.50
2019-04-23T04:45:00.042Z,7.60
2019-04-23T04:50:24.239Z,7.70
2019-04-23T04:53:36.136Z,7.70
2019-04-23T05:01:38.996Z,7.80
2019-04-23T05:04:33.127Z,7.90
2019-04-23T05:07:18.959Z,7.90
2019-04-23T05:10:09.407Z,7.90
2019-04-23T05:12:51.793Z,8.00
2019-04-23T05:15:37.262Z,8.10
2019-04-23T05:18:28.382Z,8.20
2019-04-23T05:21:20.703Z,8.20
2019-04-23T05:24:04.570Z,8.30
2019-04-23T05:26:39.222Z,8.40
2019-04-23T05:29:41.473Z,8.40
2019-04-23T05:32:21.934Z,8.50
2019-04-23T05:35:09.869Z,8.60
2019-04-23T05:38:11.459Z,8.70
2019-04-23T05:40:53.686Z,8.80
2019-04-23T05:43:35.708Z,8.90
2019-04-23T05:46:31.917Z,9.10
2019-04-23T05:49:07.368Z,9.30
2019-04-23T05:52:09.562Z,9.50
2019-04-23T05:54:43.224Z,9.70
2019-04-23T05:57:27.974Z,9.90
2019-04-23T06:00:18.431Z,10.00
2019-04-23T06:03:04.876Z,10.30
2019-04-23T06:05:56.531Z,10.50
2019-04-23T06:08:43.604Z,10.90
2019-04-23T06:11:30.752Z,11.00
2019-04-23T06:16:58.970Z,11.30
2019-04-23T06:19:42.430Z,11.60
2019-04-23T06:22:34.693Z,11.90
2019-04-23T06:25:42.194Z,12.30
2019-04-23T06:28:14.530Z,12.50
2019-04-23T06:31:04.983Z,12.70
2019-04-23T06:33:41.290Z,12.90
2019-04-23T06:39:26.192Z,12.90
2019-04-23T06:42:00.318Z,13.20
2019-04-23T06:47:43.075Z,13.70
2019-04-23T06:50:29.854Z,13.80
2019-04-23T06:53:18.089Z,13.80
2019-04-23T06:56:03.974Z,13.90
2019-04-23T06:58:53.014Z,14.40
2019-04-23T07:01:50.510Z,15.00
2019-04-23T07:04:28.868Z,14.90
2019-04-23T07:07:36.530Z,14.80
2019-04-23T07:09:58.083Z,14.80
2019-04-23T07:12:47.236Z,14.70
2019-04-23T07:15:46.127Z,15.30
2019-04-23T07:18:22.581Z,15.90
2019-04-23T07:21:13.470Z,16.30
2019-04-23T07:26:42.027Z,16.60
2019-04-23T07:32:18.187Z,16.60
2019-04-23T07:35:16.792Z,16.90
2019-04-23T07:38:02.980Z,16.90
2019-04-23T07:40:40.604Z,17.20
2019-04-23T07:43:54.543Z,17.30
2019-04-23T07:46:52.763Z,17.30
2019-04-23T07:49:37.802Z,17.00
2019-04-23T07:52:24.300Z,17.10
2019-04-23T07:55:19.442Z,18.00
2019-04-23T07:57:59.815Z,18.20
2019-04-23T08:03:39.316Z,18.00
2019-04-23T08:06:12.086Z,18.30
2019-04-23T08:09:00.873Z,18.00
2019-04-23T08:11:56.271Z,17.60
2019-04-23T08:14:51.542Z,18.20
2019-04-23T08:17:30.650Z,17.90
2019-04-23T08:20:23.327Z,18.50
2019-04-23T08:23:16.193Z,18.40
2019-04-23T08:29:22.190Z,17.90
2019-04-23T08:32:06.933Z,18.30
2019-04-23T08:40:30.719Z,19.60
2019-04-23T08:46:43.343Z,19.30
2019-04-23T08:49:22.190Z,19.10
2019-04-23T08:52:15.194Z,18.70
2019-04-23T08:54:52.974Z,19.40
2019-04-23T08:57:38.328Z,19.20
2019-04-23T09:00:33.354Z,19.00
2019-04-23T09:03:22.481Z,19.40
2019-04-23T09:09:04.292Z,20.10
2019-04-23T09:11:45.785Z,20.30
2019-04-23T09:14:20.031Z,20.40
2019-04-23T09:17:17.222Z,20.50
2019-04-23T09:20:13.217Z,20.40
2019-04-23T09:22:46.444Z,20.30
2019-04-23T09:25:46.507Z,20.90
2019-04-23T09:28:26.033Z,21.40
2019-04-23T09:31:30.294Z,21.40
2019-04-23T09:34:04.906Z,21.90
2019-04-23T09:37:14.564Z,22.40
2019-04-23T09:40:25.359Z,22.70
2019-04-23T09:46:04.753Z,21.90
2019-04-23T09:48:59.761Z,21.60
2019-04-23T09:51:37.913Z,21.00
2019-04-23T09:54:23.717Z,21.90
2019-04-23T09:57:10.297Z,22.00
2019-04-23T10:00:05.169Z,21.90
2019-04-23T10:02:33.963Z,22.70
2019-04-23T10:05:19.502Z,22.10
2019-04-23T10:08:02.871Z,21.20
2019-04-23T10:10:40.503Z,22.40
2019-04-23T10:13:27.078Z,23.20
2019-04-23T10:16:15.651Z,22.80
2019-04-23T10:19:00.658Z,22.40
2019-04-23T10:21:47.039Z,23.00
2019-04-23T10:24:32.848Z,22.20
2019-04-23T10:27:18.867Z,21.90
2019-04-23T10:30:05.862Z,22.60
2019-04-23T10:32:51.682Z,22.90
2019-04-23T10:35:46.119Z,23.20
2019-04-23T10:38:24.628Z,23.50
2019-04-23T10:41:12.027Z,24.30
2019-04-23T10:44:02.864Z,25.20
2019-04-23T10:47:35.455Z,24.70
2019-04-23T10:53:30.012Z,25.50
2019-04-23T10:56:22.326Z,25.70
2019-04-23T10:59:06.522Z,24.90
2019-04-23T11:02:02.228Z,25.60
2019-04-23T11:07:30.718Z,24.00
2019-04-23T11:10:16.098Z,23.80
2019-04-23T11:13:07.374Z,24.40
2019-04-23T11:18:55.383Z,25.70
2019-04-23T11:21:28.333Z,24.90
2019-04-23T11:24:23.651Z,24.00
2019-04-23T11:26:55.875Z,24.70
2019-04-23T11:29:48.680Z,26.80
2019-04-23T11:32:46.644Z,26.70
2019-04-23T11:35:33.846Z,24.40
2019-04-23T11:38:35.589Z,22.90
2019-04-23T11:40:53.532Z,22.50
2019-04-23T11:43:37.787Z,22.60
2019-04-23T11:49:34.545Z,22.20
2019-04-23T11:52:07.900Z,21.40
2019-04-23T11:54:54.631Z,21.30
2019-04-23T12:00:34.885Z,20.50
2019-04-23T12:03:14.272Z,21.10
2019-04-23T12:06:42.435Z,20.70
2019-04-23T12:12:16.889Z,21.70
2019-04-23T12:15:07.381Z,21.10
2019-04-23T12:17:51.247Z,22.20
2019-04-23T12:20:37.626Z,21.60
2019-04-23T12:23:35.027Z,20.10
2019-04-23T12:26:19.731Z,19.50
2019-04-23T12:29:04.115Z,19.30
2019-04-23T12:32:13.938Z,19.10
2019-04-23T12:35:01.557Z,19.10
2019-04-23T12:40:44.327Z,19.30
2019-04-23T12:43:19.083Z,19.40
2019-04-23T12:46:08.643Z,19.60
2019-04-23T12:49:25.573Z,19.60
2019-04-23T12:51:53.996Z,19.90
2019-04-23T12:54:43.217Z,20.60
2019-04-23T12:57:17.481Z,20.90
2019-04-23T13:00:05.111Z,21.30
2019-04-23T13:02:48.520Z,20.20
2019-04-23T13:05:33.981Z,19.70
2019-04-23T13:08:33.384Z,20.80
2019-04-23T13:11:15.229Z,19.90
2019-04-23T13:22:31.905Z,21.10
2019-04-23T13:25:39.815Z,21.80
2019-04-23T13:28:23.646Z,20.90
2019-04-23T13:33:51.423Z,21.70
2019-04-23T13:36:46.913Z,22.80
2019-04-23T13:39:33.020Z,22.50
2019-04-23T13:42:24.329Z,21.80
2019-04-23T13:56:15.283Z,23.40
2019-04-23T14:01:46.904Z,22.40
2019-04-23T14:04:50.690Z,22.70
2019-04-23T14:07:49.938Z,22.40
2019-04-23T14:10:40.066Z,21.60
2019-04-23T14:18:55.937Z,20.70
2019-04-23T14:21:42.532Z,20.90
2019-04-23T14:24:48.332Z,20.80
2019-04-23T14:27:14.919Z,20.80
2019-04-23T14:30:05.197Z,21.10
2019-04-23T14:32:46.945Z,21.90
2019-04-23T14:35:46.718Z,21.70
2019-04-23T14:38:23.535Z,21.40
2019-04-23T14:41:18.032Z,21.20
2019-04-23T14:44:05.361Z,20.90
2019-04-23T14:49:36.071Z,20.80
2019-04-23T14:52:23.431Z,21.30
2019-04-23T14:55:40.249Z,20.80
2019-04-23T14:58:06.371Z,19.90
2019-04-23T15:00:59.625Z,20.80
2019-04-23T15:03:35.214Z,21.10
2019-04-23T15:06:23.770Z,21.20
2019-04-23T15:09:19.629Z,21.10
2019-04-23T15:11:56.534Z,21.20
2019-04-23T15:14:47.942Z,20.90
2019-04-23T15:17:27.080Z,20.70
2019-04-23T15:20:15.011Z,20.30
2019-04-23T15:23:31.814Z,20.10
2019-04-23T15:26:39.503Z,20.00
2019-04-23T15:28:14.621Z,20.30
2019-04-23T15:31:30.814Z,20.30
2019-04-23T15:34:14.046Z,20.00
2019-04-23T15:37:14.100Z,19.70
2019-04-23T15:39:56.813Z,19.70
2019-04-23T15:42:31.363Z,19.90
2019-04-23T15:45:21.353Z,20.00
2019-04-23T15:48:12.031Z,20.00
2019-04-23T15:51:04.403Z,19.80
2019-04-23T15:53:42.058Z,19.70
2019-04-23T16:01:41.864Z,19.10
2019-04-23T16:04:24.239Z,19.00
2019-04-23T16:07:10.521Z,18.90
2019-04-23T16:10:28.702Z,18.80
2019-04-23T16:13:32.453Z,18.80
2019-04-23T16:16:06.926Z,18.60
2019-04-23T16:18:58.999Z,18.60
2019-04-23T16:21:59.111Z,18.40
2019-04-23T16:24:26.558Z,18.20
2019-04-23T16:27:31.699Z,18.10
2019-04-23T16:30:19.155Z,17.90
2019-04-23T16:38:45.366Z,17.50
2019-04-23T16:41:25.962Z,17.40
2019-04-23T16:47:03.686Z,17.10
2019-04-23T16:49:53.348Z,16.80
2019-04-23T16:52:32.742Z,16.70
2019-04-23T16:55:24.022Z,16.60
2019-04-23T16:58:21.499Z,16.40
2019-04-23T17:01:05.550Z,16.20
2019-04-23T17:03:46.612Z,16.10
2019-04-23T17:06:29.535Z,16.00
2019-04-23T17:09:18.516Z,15.90
2019-04-23T17:14:55.012Z,15.70
2019-04-23T17:17:40.843Z,15.60
2019-04-23T17:20:30.934Z,15.50
2019-04-23T17:23:29.535Z,15.50
2019-04-23T17:26:02.759Z,15.50
2019-04-23T17:28:54.325Z,15.50
2019-04-23T17:34:30.191Z,15.30
2019-04-23T17:37:19.736Z,15.20
2019-04-23T17:40:17.457Z,15.10
2019-04-23T17:42:55.479Z,15.10
2019-04-23T17:45:37.855Z,15.00
2019-04-23T17:48:43.784Z,14.90
2019-04-23T17:51:25.350Z,14.90
2019-04-23T17:54:22.983Z,14.80
2019-04-23T17:57:10.817Z,14.70
2019-04-23T18:00:08.080Z,14.60
2019-04-23T18:05:16.301Z,14.50
2019-04-23T18:08:13.804Z,14.40
2019-04-23T18:11:07.586Z,14.30
2019-04-23T18:13:50.437Z,14.20
2019-04-23T18:16:41.403Z,14.00
2019-04-23T18:19:16.639Z,14.00
2019-04-23T18:25:25.783Z,13.90
2019-04-23T18:28:08.870Z,13.70
2019-04-23T18:31:14.372Z,13.60
2019-04-23T18:37:09.300Z,13.40
2019-04-23T18:45:32.097Z,13.10
2019-04-23T18:48:40.442Z,13.00
2019-04-23T18:51:07.362Z,13.00
2019-04-23T18:54:03.090Z,13.00
2019-04-23T18:57:06.566Z,12.90
2019-04-23T18:59:47.420Z,12.80
2019-04-23T19:02:53.877Z,12.70
2019-04-23T19:05:50.811Z,12.80
2019-04-23T19:08:53.759Z,12.70
2019-04-23T19:11:53.500Z,12.60
2019-04-23T19:14:35.166Z,12.60
2019-04-23T19:17:44.065Z,12.60
2019-04-23T19:20:02.091Z,12.60
2019-04-23T19:22:53.181Z,12.60
2019-04-23T19:25:42.249Z,12.50
2019-04-23T19:34:22.993Z,12.40
2019-04-23T19:42:36.742Z,12.20
2019-04-23T19:45:21.322Z,12.10
2019-04-23T19:56:37.788Z,11.90
2019-04-23T19:59:23.554Z,11.80
2019-04-23T20:02:10.243Z,11.80
2019-04-23T20:07:52.241Z,11.70
2019-04-23T20:10:28.580Z,11.60
2019-04-23T20:13:19.145Z,11.60
2019-04-23T20:16:10.850Z,11.60
2019-04-23T20:18:50.856Z,11.50
2019-04-23T20:21:38.830Z,11.50
2019-04-23T20:24:28.210Z,11.50
2019-04-23T20:27:14.102Z,11.50
2019-04-23T20:35:56.639Z,11.40
2019-04-23T20:41:54.761Z,11.30
2019-04-23T20:44:50.496Z,11.30
2019-04-23T20:47:16.152Z,11.30
2019-04-23T20:49:58.508Z,11.30
2019-04-23T20:52:51.799Z,11.20
2019-04-23T20:56:05.567Z,11.20
2019-04-23T20:58:56.756Z,11.20
2019-04-23T21:01:57.117Z,11.10
2019-04-23T21:04:39.830Z,11.10
2019-04-23T21:07:30.713Z,11.10
2019-04-23T21:13:06.837Z,11.00
2019-04-23T21:21:18.197Z,11.10
2019-04-23T21:24:16.921Z,11.00
2019-04-23T21:27:01.679Z,11.10
2019-04-23T21:29:55.178Z,11.00
2019-04-23T21:35:46.199Z,11.00
2019-04-23T21:38:30.255Z,11.10
2019-04-23T21:41:27.173Z,11.10
2019-04-23T21:52:13.440Z,11.10
2019-04-23T21:54:57.103Z,11.00
2019-04-23T21:57:54.486Z,11.00
2019-04-23T22:00:46.041Z,11.00
2019-04-23T22:03:29.278Z,11.00
2019-04-23T22:08:58.942Z,11.00
2019-04-23T22:17:20.542Z,10.90
2019-04-23T22:23:03.811Z,10.90
2019-04-23T22:25:56.913Z,10.90
2019-04-23T22:28:27.415Z,10.80
2019-04-23T22:31:23.081Z,10.80
2019-04-23T22:34:08.661Z,10.70
2019-04-23T22:37:01.767Z,10.70
2019-04-23T22:39:34.350Z,10.60
2019-04-23T22:42:45.144Z,10.60
2019-04-23T22:50:59.344Z,10.50
2019-04-23T22:53:28.460Z,10.50
2019-04-23T22:56:18.991Z,10.40
2019-04-23T23:02:07.554Z,10.40
2019-04-23T23:05:01.886Z,10.40
2019-04-23T23:07:48.939Z,10.40
2019-04-23T23:10:31.880Z,10.40
2019-04-23T23:13:16.505Z,10.30
2019-04-23T23:16:01.136Z,10.40
2019-04-23T23:18:55.124Z,10.30
2019-04-23T23:21:48.543Z,10.40
2019-04-23T23:24:21.642Z,10.30
2019-04-23T23:27:23.712Z,10.30
2019-04-23T23:30:05.159Z,10.30
2019-04-23T23:32:51.242Z,10.30
2019-04-23T23:35:28.385Z,10.30
2019-04-23T23:38:29.272Z,10.30
2019-04-23T23:41:11.801Z,10.30
2019-04-23T23:44:06.001Z,10.30
2019-04-23T23:49:24.054Z,10.30
2019-04-23T23:52:15.941Z,10.30
2019-04-23T23:57:54.292Z,10.30
